sensor_id;sensor_type;location;lat;lon;timestamp;temperature;humidity
18805;DHT22;9530;48.930;9.526;2023-02-08T00:02:00;-3.50;99.90
18805;DHT22;9530;48.930;9.526;2023-02-08T00:04:26;-3.40;99.90
18805;DHT22;9530;48.930;9.526;2023-02-08T00:06:53;-3.30;99.90
18805;DHT22;9530;48.930;9.526;2023-02-08T00:09:20;-3.30;99.90
18805;DHT22;9530;48.930;9.526;2023-02-08T00:11:46;-3.30;99.90
18805;DHT22;9530;48.930;9.526;2023-02-08T00:14:13;-3.30;99.90
18805;DHT22;9530;48.930;9.526;2023-02-08T00:16:41;-3.20;99.90
18805;DHT22;9530;48.930;9.526;2023-02-08T00:19:08;-3.20;99.90
18805;DHT22;9530;48.930;9.526;2023-02-08T00:21:34;-3.20;99.90
18805;DHT22;9530;48.930;9.526;2023-02-08T00:24:01;-3.20;99.90
18805;DHT22;9530;48.930;9.526;2023-02-08T00:26:28;-3.20;99.90
18805;DHT22;9530;48.930;9.526;2023-02-08T00:28:54;-3.20;99.90
18805;DHT22;9530;48.930;9.526;2023-02-08T00:31:21;-3.30;99.90
18805;DHT22;9530;48.930;9.526;2023-02-08T00:33:49;-3.30;99.90
18805;DHT22;9530;48.930;9.526;2023-02-08T00:36:16;-3.20;99.90
18805;DHT22;9530;48.930;9.526;2023-02-08T00:38:42;-3.20;99.90
18805;DHT22;9530;48.930;9.526;2023-02-08T00:41:09;-3.10;99.90
18805;DHT22;9530;48.930;9.526;2023-02-08T00:43:36;-3.20;99.90
18805;DHT22;9530;48.930;9.526;2023-02-08T00:46:03;-3.10;99.90
18805;DHT22;9530;48.930;9.526;2023-02-08T00:48:30;-3.00;99.90
18805;DHT22;9530;48.930;9.526;2023-02-08T00:51:00;-2.90;99.90
18805;DHT22;9530;48.930;9.526;2023-02-08T00:53:28;-2.90;99.90
18805;DHT22;9530;48.930;9.526;2023-02-08T00:55:55;-2.90;99.90
18805;DHT22;9530;48.930;9.526;2023-02-08T00:58:22;-3.00;99.90
18805;DHT22;9530;48.930;9.526;2023-02-08T01:00:50;-3.00;99.90
18805;DHT22;9530;48.930;9.526;2023-02-08T01:03:17;-3.00;99.90
18805;DHT22;9530;48.930;9.526;2023-02-08T01:05:44;-3.00;99.90
18805;DHT22;9530;48.930;9.526;2023-02-08T01:08:12;-3.00;99.90
18805;DHT22;9530;48.930;9.526;2023-02-08T01:10:39;-3.00;99.90
18805;DHT22;9530;48.930;9.526;2023-02-08T01:13:05;-2.90;99.90
18805;DHT22;9530;48.930;9.526;2023-02-08T01:15:33;-3.00;99.90
18805;DHT22;9530;48.930;9.526;2023-02-08T01:18:00;-3.00;99.90
18805;DHT22;9530;48.930;9.526;2023-02-08T01:20:26;-3.00;99.90
18805;DHT22;9530;48.930;9.526;2023-02-08T01:22:54;-3.00;99.90
18805;DHT22;9530;48.930;9.526;2023-02-08T01:25:22;-3.10;99.90
18805;DHT22;9530;48.930;9.526;2023-02-08T01:27:49;-3.30;99.90
18805;DHT22;9530;48.930;9.526;2023-02-08T01:30:16;-3.30;99.90
18805;DHT22;9530;48.930;9.526;2023-02-08T01:32:43;-3.30;99.90
18805;DHT22;9530;48.930;9.526;2023-02-08T01:35:09;-3.40;99.90
18805;DHT22;9530;48.930;9.526;2023-02-08T01:37:37;-3.40;99.90
18805;DHT22;9530;48.930;9.526;2023-02-08T01:40:04;-3.50;99.90
18805;DHT22;9530;48.930;9.526;2023-02-08T01:42:32;-3.50;99.90
18805;DHT22;9530;48.930;9.526;2023-02-08T01:45:28;-3.40;99.90
18805;DHT22;9530;48.930;9.526;2023-02-08T01:48:08;-3.40;99.90
18805;DHT22;9530;48.930;9.526;2023-02-08T01:50:42;-3.40;99.90
18805;DHT22;9530;48.930;9.526;2023-02-08T01:53:11;-3.50;99.90
18805;DHT22;9530;48.930;9.526;2023-02-08T01:55:43;-3.40;99.90
18805;DHT22;9530;48.930;9.526;2023-02-08T01:58:13;-3.40;99.90
18805;DHT22;9530;48.930;9.526;2023-02-08T02:00:40;-3.50;99.90
18805;DHT22;9530;48.930;9.526;2023-02-08T02:03:07;-3.50;99.90
18805;DHT22;9530;48.930;9.526;2023-02-08T02:05:38;-3.50;99.90
18805;DHT22;9530;48.930;9.526;2023-02-08T02:08:07;-3.50;99.90
18805;DHT22;9530;48.930;9.526;2023-02-08T02:10:35;-3.50;99.90
18805;DHT22;9530;48.930;9.526;2023-02-08T02:13:05;-3.60;99.90
18805;DHT22;9530;48.930;9.526;2023-02-08T02:15:33;-3.60;99.90
18805;DHT22;9530;48.930;9.526;2023-02-08T02:18:01;-3.50;99.90
18805;DHT22;9530;48.930;9.526;2023-02-08T02:20:38;-3.50;99.90
18805;DHT22;9530;48.930;9.526;2023-02-08T02:23:42;-3.40;99.90
18805;DHT22;9530;48.930;9.526;2023-02-08T02:29:36;-3.40;99.90
18805;DHT22;9530;48.930;9.526;2023-02-08T02:32:13;-3.30;99.90
18805;DHT22;9530;48.930;9.526;2023-02-08T02:34:45;-3.20;99.90
18805;DHT22;9530;48.930;9.526;2023-02-08T02:37:26;-2.90;99.90
18805;DHT22;9530;48.930;9.526;2023-02-08T02:40:08;-2.80;99.90
18805;DHT22;9530;48.930;9.526;2023-02-08T02:42:41;-2.80;99.90
18805;DHT22;9530;48.930;9.526;2023-02-08T02:45:33;-2.80;99.90
18805;DHT22;9530;48.930;9.526;2023-02-08T02:48:07;-2.90;99.90
18805;DHT22;9530;48.930;9.526;2023-02-08T02:50:40;-2.90;99.90
18805;DHT22;9530;48.930;9.526;2023-02-08T02:53:11;-2.80;99.90
18805;DHT22;9530;48.930;9.526;2023-02-08T02:55:46;-2.80;99.90
18805;DHT22;9530;48.930;9.526;2023-02-08T02:58:15;-2.80;99.90
18805;DHT22;9530;48.930;9.526;2023-02-08T03:00:42;-2.90;99.90
18805;DHT22;9530;48.930;9.526;2023-02-08T03:03:16;-2.80;99.90
18805;DHT22;9530;48.930;9.526;2023-02-08T03:05:45;-2.80;99.90
18805;DHT22;9530;48.930;9.526;2023-02-08T03:08:23;-2.80;99.90
18805;DHT22;9530;48.930;9.526;2023-02-08T03:11:13;-2.80;99.90
18805;DHT22;9530;48.930;9.526;2023-02-08T03:13:52;-2.70;99.90
18805;DHT22;9530;48.930;9.526;2023-02-08T03:16:30;-2.70;99.90
18805;DHT22;9530;48.930;9.526;2023-02-08T03:19:06;-2.70;99.90
18805;DHT22;9530;48.930;9.526;2023-02-08T03:21:40;-2.80;99.90
18805;DHT22;9530;48.930;9.526;2023-02-08T03:24:21;-2.80;99.90
18805;DHT22;9530;48.930;9.526;2023-02-08T03:26:54;-2.80;99.90
18805;DHT22;9530;48.930;9.526;2023-02-08T03:29:30;-2.90;99.90
18805;DHT22;9530;48.930;9.526;2023-02-08T03:32:05;-2.90;99.90
18805;DHT22;9530;48.930;9.526;2023-02-08T03:34:40;-3.00;99.90
18805;DHT22;9530;48.930;9.526;2023-02-08T03:37:13;-3.10;99.90
18805;DHT22;9530;48.930;9.526;2023-02-08T03:39:42;-3.00;99.90
18805;DHT22;9530;48.930;9.526;2023-02-08T03:42:14;-3.00;99.90
18805;DHT22;9530;48.930;9.526;2023-02-08T03:44:45;-3.00;99.90
18805;DHT22;9530;48.930;9.526;2023-02-08T03:47:18;-3.00;99.90
18805;DHT22;9530;48.930;9.526;2023-02-08T03:49:50;-3.00;99.90
18805;DHT22;9530;48.930;9.526;2023-02-08T03:52:18;-3.00;99.90
18805;DHT22;9530;48.930;9.526;2023-02-08T03:54:50;-3.00;99.90
18805;DHT22;9530;48.930;9.526;2023-02-08T03:57:21;-3.00;99.90
18805;DHT22;9530;48.930;9.526;2023-02-08T03:59:54;-3.10;99.90
18805;DHT22;9530;48.930;9.526;2023-02-08T04:02:25;-3.10;99.90
18805;DHT22;9530;48.930;9.526;2023-02-08T04:04:54;-3.20;99.90
18805;DHT22;9530;48.930;9.526;2023-02-08T04:07:22;-3.20;99.90
18805;DHT22;9530;48.930;9.526;2023-02-08T04:09:48;-3.20;99.90
18805;DHT22;9530;48.930;9.526;2023-02-08T04:12:15;-3.20;99.90
18805;DHT22;9530;48.930;9.526;2023-02-08T04:14:42;-3.20;99.90
18805;DHT22;9530;48.930;9.526;2023-02-08T04:17:08;-3.20;99.90
18805;DHT22;9530;48.930;9.526;2023-02-08T04:19:35;-3.20;99.90
18805;DHT22;9530;48.930;9.526;2023-02-08T04:22:03;-3.20;99.90
18805;DHT22;9530;48.930;9.526;2023-02-08T04:24:30;-3.30;99.90
18805;DHT22;9530;48.930;9.526;2023-02-08T04:26:56;-3.30;99.90
18805;DHT22;9530;48.930;9.526;2023-02-08T04:29:23;-3.30;99.90
18805;DHT22;9530;48.930;9.526;2023-02-08T04:31:50;-3.30;99.90
18805;DHT22;9530;48.930;9.526;2023-02-08T04:34:16;-3.30;99.90
18805;DHT22;9530;48.930;9.526;2023-02-08T04:36:43;-3.30;99.90
18805;DHT22;9530;48.930;9.526;2023-02-08T04:39:11;-3.30;99.90
18805;DHT22;9530;48.930;9.526;2023-02-08T04:41:38;-3.30;99.90
18805;DHT22;9530;48.930;9.526;2023-02-08T04:44:04;-3.20;99.90
18805;DHT22;9530;48.930;9.526;2023-02-08T04:46:31;-3.20;99.90
18805;DHT22;9530;48.930;9.526;2023-02-08T04:48:57;-3.20;99.90
18805;DHT22;9530;48.930;9.526;2023-02-08T04:51:24;-3.20;99.90
18805;DHT22;9530;48.930;9.526;2023-02-08T04:53:51;-3.30;99.90
18805;DHT22;9530;48.930;9.526;2023-02-08T04:56:19;-3.30;99.90
18805;DHT22;9530;48.930;9.526;2023-02-08T04:58:45;-3.30;99.90
18805;DHT22;9530;48.930;9.526;2023-02-08T05:01:13;-3.30;99.90
18805;DHT22;9530;48.930;9.526;2023-02-08T05:03:40;-3.30;99.90
18805;DHT22;9530;48.930;9.526;2023-02-08T05:06:07;-3.30;99.90
18805;DHT22;9530;48.930;9.526;2023-02-08T05:08:34;-3.40;99.90
18805;DHT22;9530;48.930;9.526;2023-02-08T05:11:00;-3.40;99.90
18805;DHT22;9530;48.930;9.526;2023-02-08T05:13:28;-3.40;99.90
18805;DHT22;9530;48.930;9.526;2023-02-08T05:15:55;-3.40;99.90
18805;DHT22;9530;48.930;9.526;2023-02-08T05:18:22;-3.40;99.90
18805;DHT22;9530;48.930;9.526;2023-02-08T05:20:53;-3.40;99.90
18805;DHT22;9530;48.930;9.526;2023-02-08T05:23:20;-3.40;99.90
18805;DHT22;9530;48.930;9.526;2023-02-08T05:25:47;-3.40;99.90
18805;DHT22;9530;48.930;9.526;2023-02-08T05:28:14;-3.40;99.90
18805;DHT22;9530;48.930;9.526;2023-02-08T05:30:42;-3.40;99.90
18805;DHT22;9530;48.930;9.526;2023-02-08T05:33:09;-3.50;99.90
18805;DHT22;9530;48.930;9.526;2023-02-08T05:35:35;-3.50;99.90
18805;DHT22;9530;48.930;9.526;2023-02-08T05:38:02;-3.60;99.90
18805;DHT22;9530;48.930;9.526;2023-02-08T05:40:29;-3.60;99.90
18805;DHT22;9530;48.930;9.526;2023-02-08T05:42:55;-3.70;99.90
18805;DHT22;9530;48.930;9.526;2023-02-08T05:45:22;-3.70;99.90
18805;DHT22;9530;48.930;9.526;2023-02-08T05:47:50;-3.70;99.90
18805;DHT22;9530;48.930;9.526;2023-02-08T05:50:17;-3.70;99.90
18805;DHT22;9530;48.930;9.526;2023-02-08T05:52:44;-3.70;99.90
18805;DHT22;9530;48.930;9.526;2023-02-08T05:55:10;-3.80;99.90
18805;DHT22;9530;48.930;9.526;2023-02-08T05:57:37;-3.80;99.90
18805;DHT22;9530;48.930;9.526;2023-02-08T06:00:05;-3.80;99.90
18805;DHT22;9530;48.930;9.526;2023-02-08T06:02:32;-3.80;99.90
18805;DHT22;9530;48.930;9.526;2023-02-08T06:05:00;-3.80;99.90
18805;DHT22;9530;48.930;9.526;2023-02-08T06:07:26;-3.80;99.90
18805;DHT22;9530;48.930;9.526;2023-02-08T06:09:54;-3.80;99.90
18805;DHT22;9530;48.930;9.526;2023-02-08T06:12:20;-3.80;99.90
18805;DHT22;9530;48.930;9.526;2023-02-08T06:14:47;-3.80;99.90
18805;DHT22;9530;48.930;9.526;2023-02-08T06:17:14;-3.80;99.90
18805;DHT22;9530;48.930;9.526;2023-02-08T06:19:41;-3.90;99.90
18805;DHT22;9530;48.930;9.526;2023-02-08T06:22:09;-3.90;99.90
18805;DHT22;9530;48.930;9.526;2023-02-08T06:24:35;-3.80;99.90
18805;DHT22;9530;48.930;9.526;2023-02-08T06:27:02;-3.80;99.90
18805;DHT22;9530;48.930;9.526;2023-02-08T06:29:29;-3.80;99.90
18805;DHT22;9530;48.930;9.526;2023-02-08T06:31:55;-3.80;99.90
18805;DHT22;9530;48.930;9.526;2023-02-08T06:34:22;-3.80;99.90
18805;DHT22;9530;48.930;9.526;2023-02-08T06:36:49;-3.80;99.90
18805;DHT22;9530;48.930;9.526;2023-02-08T06:39:17;-3.80;99.90
18805;DHT22;9530;48.930;9.526;2023-02-08T06:41:43;-3.90;99.90
18805;DHT22;9530;48.930;9.526;2023-02-08T06:44:10;-3.80;99.90
18805;DHT22;9530;48.930;9.526;2023-02-08T06:46:37;-3.80;99.90
18805;DHT22;9530;48.930;9.526;2023-02-08T06:49:03;-3.80;99.90
18805;DHT22;9530;48.930;9.526;2023-02-08T06:51:30;-3.80;99.90
18805;DHT22;9530;48.930;9.526;2023-02-08T06:53:57;-3.80;99.90
18805;DHT22;9530;48.930;9.526;2023-02-08T06:56:25;-3.80;99.90
18805;DHT22;9530;48.930;9.526;2023-02-08T06:58:51;-3.70;99.90
18805;DHT22;9530;48.930;9.526;2023-02-08T07:01:18;-3.70;99.90
18805;DHT22;9530;48.930;9.526;2023-02-08T07:03:45;-3.70;99.90
18805;DHT22;9530;48.930;9.526;2023-02-08T07:06:12;-3.70;99.90
18805;DHT22;9530;48.930;9.526;2023-02-08T07:08:39;-3.70;99.90
18805;DHT22;9530;48.930;9.526;2023-02-08T07:11:07;-3.60;99.90
18805;DHT22;9530;48.930;9.526;2023-02-08T07:13:36;-3.60;99.90
18805;DHT22;9530;48.930;9.526;2023-02-08T07:16:03;-3.60;99.90
18805;DHT22;9530;48.930;9.526;2023-02-08T07:18:29;-3.60;99.90
18805;DHT22;9530;48.930;9.526;2023-02-08T07:20:56;-3.70;99.90
18805;DHT22;9530;48.930;9.526;2023-02-08T07:23:23;-3.60;99.90
18805;DHT22;9530;48.930;9.526;2023-02-08T07:25:56;-3.50;99.90
18805;DHT22;9530;48.930;9.526;2023-02-08T07:28:24;-3.50;99.90
18805;DHT22;9530;48.930;9.526;2023-02-08T07:30:52;-3.50;99.90
18805;DHT22;9530;48.930;9.526;2023-02-08T07:33:19;-3.40;99.90
18805;DHT22;9530;48.930;9.526;2023-02-08T07:35:46;-3.40;99.90
18805;DHT22;9530;48.930;9.526;2023-02-08T07:38:12;-3.20;99.90
18805;DHT22;9530;48.930;9.526;2023-02-08T07:40:39;-3.10;99.90
18805;DHT22;9530;48.930;9.526;2023-02-08T07:43:06;-3.00;99.90
18805;DHT22;9530;48.930;9.526;2023-02-08T07:45:33;-3.00;99.90
18805;DHT22;9530;48.930;9.526;2023-02-08T07:48:01;-3.00;99.90
18805;DHT22;9530;48.930;9.526;2023-02-08T07:50:27;-2.90;99.90
18805;DHT22;9530;48.930;9.526;2023-02-08T07:52:54;-2.80;99.90
18805;DHT22;9530;48.930;9.526;2023-02-08T07:55:21;-2.70;99.90
18805;DHT22;9530;48.930;9.526;2023-02-08T07:57:48;-2.50;99.90
18805;DHT22;9530;48.930;9.526;2023-02-08T08:00:16;-2.50;99.90
18805;DHT22;9530;48.930;9.526;2023-02-08T08:02:44;-2.40;99.90
18805;DHT22;9530;48.930;9.526;2023-02-08T08:05:12;-2.30;99.90
18805;DHT22;9530;48.930;9.526;2023-02-08T08:07:38;-2.20;99.90
18805;DHT22;9530;48.930;9.526;2023-02-08T08:10:05;-2.20;99.90
18805;DHT22;9530;48.930;9.526;2023-02-08T08:12:32;-2.00;99.90
18805;DHT22;9530;48.930;9.526;2023-02-08T08:14:59;-1.90;99.90
18805;DHT22;9530;48.930;9.526;2023-02-08T08:17:25;-1.80;99.90
18805;DHT22;9530;48.930;9.526;2023-02-08T08:19:52;-1.60;99.90
18805;DHT22;9530;48.930;9.526;2023-02-08T08:22:20;-1.50;99.90
18805;DHT22;9530;48.930;9.526;2023-02-08T08:24:47;-1.40;99.90
18805;DHT22;9530;48.930;9.526;2023-02-08T08:27:13;-1.30;99.90
18805;DHT22;9530;48.930;9.526;2023-02-08T08:29:40;-1.20;99.90
18805;DHT22;9530;48.930;9.526;2023-02-08T08:32:07;-1.10;99.90
18805;DHT22;9530;48.930;9.526;2023-02-08T08:34:33;-1.00;99.90
18805;DHT22;9530;48.930;9.526;2023-02-08T08:37:01;-0.90;99.90
18805;DHT22;9530;48.930;9.526;2023-02-08T08:39:29;-0.80;99.90
18805;DHT22;9530;48.930;9.526;2023-02-08T08:41:57;-0.70;99.90
18805;DHT22;9530;48.930;9.526;2023-02-08T08:44:24;-0.60;99.90
18805;DHT22;9530;48.930;9.526;2023-02-08T08:46:53;-0.50;99.90
18805;DHT22;9530;48.930;9.526;2023-02-08T08:49:20;-0.40;99.90
18805;DHT22;9530;48.930;9.526;2023-02-08T08:51:47;-0.30;99.90
18805;DHT22;9530;48.930;9.526;2023-02-08T08:54:14;-0.20;99.90
18805;DHT22;9530;48.930;9.526;2023-02-08T08:56:42;-0.20;99.90
18805;DHT22;9530;48.930;9.526;2023-02-08T08:59:08;-0.20;99.90
18805;DHT22;9530;48.930;9.526;2023-02-08T09:01:35;-0.10;99.90
18805;DHT22;9530;48.930;9.526;2023-02-08T09:04:03;-0.10;99.90
18805;DHT22;9530;48.930;9.526;2023-02-08T09:06:30;0.00;99.90
18805;DHT22;9530;48.930;9.526;2023-02-08T09:08:56;0.10;99.90
18805;DHT22;9530;48.930;9.526;2023-02-08T09:11:23;0.10;99.90
18805;DHT22;9530;48.930;9.526;2023-02-08T09:13:51;0.20;99.90
18805;DHT22;9530;48.930;9.526;2023-02-08T09:16:21;0.30;99.90
18805;DHT22;9530;48.930;9.526;2023-02-08T09:18:49;0.30;99.90
18805;DHT22;9530;48.930;9.526;2023-02-08T09:21:17;0.40;99.90
18805;DHT22;9530;48.930;9.526;2023-02-08T09:23:45;0.50;99.90
18805;DHT22;9530;48.930;9.526;2023-02-08T09:26:14;0.50;99.90
18805;DHT22;9530;48.930;9.526;2023-02-08T09:28:41;0.60;99.90
18805;DHT22;9530;48.930;9.526;2023-02-08T09:31:10;0.60;99.90
18805;DHT22;9530;48.930;9.526;2023-02-08T09:33:37;0.70;99.90
18805;DHT22;9530;48.930;9.526;2023-02-08T09:36:05;0.80;99.90
18805;DHT22;9530;48.930;9.526;2023-02-08T09:38:32;0.80;99.90
18805;DHT22;9530;48.930;9.526;2023-02-08T09:41:05;0.90;99.90
18805;DHT22;9530;48.930;9.526;2023-02-08T09:43:40;1.10;99.90
18805;DHT22;9530;48.930;9.526;2023-02-08T09:46:15;1.10;99.90
18805;DHT22;9530;48.930;9.526;2023-02-08T09:48:44;1.20;99.90
18805;DHT22;9530;48.930;9.526;2023-02-08T09:51:20;1.20;99.90
18805;DHT22;9530;48.930;9.526;2023-02-08T09:53:53;1.40;99.90
18805;DHT22;9530;48.930;9.526;2023-02-08T09:56:27;1.50;99.90
18805;DHT22;9530;48.930;9.526;2023-02-08T09:58:56;1.60;99.90
18805;DHT22;9530;48.930;9.526;2023-02-08T10:01:25;1.70;99.90
18805;DHT22;9530;48.930;9.526;2023-02-08T10:03:56;1.80;99.90
18805;DHT22;9530;48.930;9.526;2023-02-08T10:06:24;1.90;99.90
18805;DHT22;9530;48.930;9.526;2023-02-08T10:08:52;1.90;99.90
18805;DHT22;9530;48.930;9.526;2023-02-08T10:11:28;2.00;99.90
18805;DHT22;9530;48.930;9.526;2023-02-08T10:14:07;2.10;99.90
18805;DHT22;9530;48.930;9.526;2023-02-08T10:16:58;2.10;99.90
18805;DHT22;9530;48.930;9.526;2023-02-08T10:19:41;2.20;99.90
18805;DHT22;9530;48.930;9.526;2023-02-08T10:22:23;2.30;99.90
18805;DHT22;9530;48.930;9.526;2023-02-08T10:25:11;2.40;99.90
18805;DHT22;9530;48.930;9.526;2023-02-08T10:27:53;2.40;99.90
18805;DHT22;9530;48.930;9.526;2023-02-08T10:30:34;2.40;99.90
18805;DHT22;9530;48.930;9.526;2023-02-08T10:33:13;2.40;99.90
18805;DHT22;9530;48.930;9.526;2023-02-08T10:35:44;2.40;99.90
18805;DHT22;9530;48.930;9.526;2023-02-08T10:38:27;2.70;99.90
18805;DHT22;9530;48.930;9.526;2023-02-08T10:40:57;2.70;99.90
18805;DHT22;9530;48.930;9.526;2023-02-08T10:43:31;2.70;99.90
18805;DHT22;9530;48.930;9.526;2023-02-08T10:46:06;2.70;99.90
18805;DHT22;9530;48.930;9.526;2023-02-08T10:48:48;2.60;99.90
18805;DHT22;9530;48.930;9.526;2023-02-08T10:51:17;2.70;99.90
18805;DHT22;9530;48.930;9.526;2023-02-08T10:53:44;2.70;99.90
18805;DHT22;9530;48.930;9.526;2023-02-08T10:56:26;2.80;99.90
18805;DHT22;9530;48.930;9.526;2023-02-08T10:58:57;2.90;99.90
18805;DHT22;9530;48.930;9.526;2023-02-08T11:01:25;3.00;99.90
18805;DHT22;9530;48.930;9.526;2023-02-08T11:04:01;3.00;99.90
18805;DHT22;9530;48.930;9.526;2023-02-08T11:06:28;3.10;99.90
18805;DHT22;9530;48.930;9.526;2023-02-08T11:08:56;3.20;99.90
18805;DHT22;9530;48.930;9.526;2023-02-08T11:11:23;3.20;99.90
18805;DHT22;9530;48.930;9.526;2023-02-08T11:13:52;3.20;99.90
18805;DHT22;9530;48.930;9.526;2023-02-08T11:16:21;3.20;99.90
18805;DHT22;9530;48.930;9.526;2023-02-08T11:18:50;3.20;99.90
18805;DHT22;9530;48.930;9.526;2023-02-08T11:21:24;3.30;99.90
18805;DHT22;9530;48.930;9.526;2023-02-08T11:23:55;3.30;99.90
18805;DHT22;9530;48.930;9.526;2023-02-08T11:26:31;3.40;99.90
18805;DHT22;9530;48.930;9.526;2023-02-08T11:29:00;3.50;99.90
18805;DHT22;9530;48.930;9.526;2023-02-08T11:31:27;3.50;99.90
18805;DHT22;9530;48.930;9.526;2023-02-08T11:34:00;3.60;99.90
18805;DHT22;9530;48.930;9.526;2023-02-08T11:36:31;3.60;99.90
18805;DHT22;9530;48.930;9.526;2023-02-08T11:39:00;3.70;99.90
18805;DHT22;9530;48.930;9.526;2023-02-08T11:41:28;3.70;99.90
18805;DHT22;9530;48.930;9.526;2023-02-08T11:43:58;3.70;99.90
18805;DHT22;9530;48.930;9.526;2023-02-08T11:46:27;3.80;99.90
18805;DHT22;9530;48.930;9.526;2023-02-08T11:48:55;3.90;99.90
18805;DHT22;9530;48.930;9.526;2023-02-08T11:51:26;4.20;99.90
18805;DHT22;9530;48.930;9.526;2023-02-08T11:53:54;4.10;99.90
18805;DHT22;9530;48.930;9.526;2023-02-08T11:56:23;4.20;99.90
18805;DHT22;9530;48.930;9.526;2023-02-08T11:58:56;4.00;99.90
18805;DHT22;9530;48.930;9.526;2023-02-08T12:01:26;3.90;99.90
18805;DHT22;9530;48.930;9.526;2023-02-08T12:03:56;4.00;99.90
18805;DHT22;9530;48.930;9.526;2023-02-08T12:06:41;4.10;99.90
18805;DHT22;9530;48.930;9.526;2023-02-08T12:09:33;4.20;99.90
18805;DHT22;9530;48.930;9.526;2023-02-08T12:12:11;4.20;99.90
18805;DHT22;9530;48.930;9.526;2023-02-08T12:14:51;4.30;99.90
18805;DHT22;9530;48.930;9.526;2023-02-08T12:17:37;4.40;99.90
18805;DHT22;9530;48.930;9.526;2023-02-08T12:20:31;4.30;99.90
18805;DHT22;9530;48.930;9.526;2023-02-08T12:23:13;4.30;99.90
18805;DHT22;9530;48.930;9.526;2023-02-08T12:25:46;4.40;99.90
18805;DHT22;9530;48.930;9.526;2023-02-08T12:28:20;4.50;99.90
18805;DHT22;9530;48.930;9.526;2023-02-08T12:30:52;4.50;99.90
18805;DHT22;9530;48.930;9.526;2023-02-08T12:33:41;4.50;99.90
18805;DHT22;9530;48.930;9.526;2023-02-08T12:39:15;4.30;99.90
18805;DHT22;9530;48.930;9.526;2023-02-08T12:42:13;4.00;99.90
18805;DHT22;9530;48.930;9.526;2023-02-08T12:44:50;3.90;99.90
18805;DHT22;9530;48.930;9.526;2023-02-08T12:47:34;3.90;99.90
18805;DHT22;9530;48.930;9.526;2023-02-08T12:50:11;4.00;99.90
18805;DHT22;9530;48.930;9.526;2023-02-08T12:52:47;4.10;99.90
18805;DHT22;9530;48.930;9.526;2023-02-08T12:55:17;4.10;99.90
18805;DHT22;9530;48.930;9.526;2023-02-08T12:57:50;4.10;99.90
18805;DHT22;9530;48.930;9.526;2023-02-08T13:00:21;4.00;99.90
18805;DHT22;9530;48.930;9.526;2023-02-08T13:02:55;4.00;99.90
18805;DHT22;9530;48.930;9.526;2023-02-08T13:05:27;4.00;99.90
18805;DHT22;9530;48.930;9.526;2023-02-08T13:08:00;4.10;99.90
18805;DHT22;9530;48.930;9.526;2023-02-08T13:10:32;4.10;99.90
18805;DHT22;9530;48.930;9.526;2023-02-08T13:13:07;4.10;99.90
18805;DHT22;9530;48.930;9.526;2023-02-08T13:15:40;4.20;99.90
18805;DHT22;9530;48.930;9.526;2023-02-08T13:18:13;4.20;99.90
18805;DHT22;9530;48.930;9.526;2023-02-08T13:20:44;4.30;99.90
18805;DHT22;9530;48.930;9.526;2023-02-08T13:23:17;4.40;99.90
18805;DHT22;9530;48.930;9.526;2023-02-08T13:25:47;4.40;99.90
18805;DHT22;9530;48.930;9.526;2023-02-08T13:28:18;4.50;99.90
18805;DHT22;9530;48.930;9.526;2023-02-08T13:30:52;4.50;99.90
18805;DHT22;9530;48.930;9.526;2023-02-08T13:33:28;4.50;99.90
18805;DHT22;9530;48.930;9.526;2023-02-08T13:35:56;4.40;99.90
18805;DHT22;9530;48.930;9.526;2023-02-08T13:38:27;4.20;99.90
18805;DHT22;9530;48.930;9.526;2023-02-08T13:41:06;4.20;99.90
18805;DHT22;9530;48.930;9.526;2023-02-08T13:43:40;4.20;99.90
18805;DHT22;9530;48.930;9.526;2023-02-08T13:46:09;4.00;99.90
18805;DHT22;9530;48.930;9.526;2023-02-08T13:48:45;3.90;99.90
18805;DHT22;9530;48.930;9.526;2023-02-08T13:54:21;3.80;99.90
18805;DHT22;9530;48.930;9.526;2023-02-08T13:56:50;3.80;99.90
18805;DHT22;9530;48.930;9.526;2023-02-08T13:59:34;3.80;99.90
18805;DHT22;9530;48.930;9.526;2023-02-08T14:02:25;3.90;99.90
18805;DHT22;9530;48.930;9.526;2023-02-08T14:04:58;3.90;99.90
18805;DHT22;9530;48.930;9.526;2023-02-08T14:07:45;3.90;99.90
18805;DHT22;9530;48.930;9.526;2023-02-08T14:10:24;4.00;99.90
18805;DHT22;9530;48.930;9.526;2023-02-08T14:12:59;4.00;99.90
18805;DHT22;9530;48.930;9.526;2023-02-08T14:15:33;4.10;99.90
18805;DHT22;9530;48.930;9.526;2023-02-08T14:18:02;4.10;99.90
18805;DHT22;9530;48.930;9.526;2023-02-08T14:20:32;4.00;99.90
18805;DHT22;9530;48.930;9.526;2023-02-08T14:23:03;3.80;99.90
18805;DHT22;9530;48.930;9.526;2023-02-08T14:25:39;3.70;99.90
18805;DHT22;9530;48.930;9.526;2023-02-08T14:28:27;3.60;99.90
18805;DHT22;9530;48.930;9.526;2023-02-08T14:30:58;3.70;99.90
18805;DHT22;9530;48.930;9.526;2023-02-08T14:33:27;3.70;99.90
18805;DHT22;9530;48.930;9.526;2023-02-08T14:35:57;3.70;99.90
18805;DHT22;9530;48.930;9.526;2023-02-08T14:38:35;3.70;99.90
18805;DHT22;9530;48.930;9.526;2023-02-08T14:41:48;3.80;99.90
18805;DHT22;9530;48.930;9.526;2023-02-08T14:47:50;3.80;99.90
18805;DHT22;9530;48.930;9.526;2023-02-08T14:50:20;3.90;99.90
18805;DHT22;9530;48.930;9.526;2023-02-08T14:52:53;3.90;99.90
18805;DHT22;9530;48.930;9.526;2023-02-08T14:55:23;3.90;99.90
18805;DHT22;9530;48.930;9.526;2023-02-08T14:57:53;3.90;99.90
18805;DHT22;9530;48.930;9.526;2023-02-08T15:00:22;3.80;99.90
18805;DHT22;9530;48.930;9.526;2023-02-08T15:02:53;3.70;99.90
18805;DHT22;9530;48.930;9.526;2023-02-08T15:05:21;3.70;99.90
18805;DHT22;9530;48.930;9.526;2023-02-08T15:07:50;3.70;99.90
18805;DHT22;9530;48.930;9.526;2023-02-08T15:10:19;3.70;99.90
18805;DHT22;9530;48.930;9.526;2023-02-08T15:12:49;3.60;99.90
18805;DHT22;9530;48.930;9.526;2023-02-08T15:15:24;3.60;99.90
18805;DHT22;9530;48.930;9.526;2023-02-08T15:17:54;3.60;99.90
18805;DHT22;9530;48.930;9.526;2023-02-08T15:20:22;3.50;99.90
18805;DHT22;9530;48.930;9.526;2023-02-08T15:22:57;3.50;99.90
18805;DHT22;9530;48.930;9.526;2023-02-08T15:25:26;3.40;99.90
18805;DHT22;9530;48.930;9.526;2023-02-08T15:27:56;3.40;99.90
18805;DHT22;9530;48.930;9.526;2023-02-08T15:30:25;3.30;99.90
18805;DHT22;9530;48.930;9.526;2023-02-08T15:32:54;3.30;99.90
18805;DHT22;9530;48.930;9.526;2023-02-08T15:35:23;3.20;99.90
18805;DHT22;9530;48.930;9.526;2023-02-08T15:37:51;3.20;99.90
18805;DHT22;9530;48.930;9.526;2023-02-08T15:40:24;3.20;99.90
18805;DHT22;9530;48.930;9.526;2023-02-08T15:42:51;3.20;99.90
18805;DHT22;9530;48.930;9.526;2023-02-08T15:45:25;3.20;99.90
18805;DHT22;9530;48.930;9.526;2023-02-08T15:47:56;3.10;99.90
18805;DHT22;9530;48.930;9.526;2023-02-08T15:50:24;3.00;99.90
18805;DHT22;9530;48.930;9.526;2023-02-08T15:52:56;3.00;99.90
18805;DHT22;9530;48.930;9.526;2023-02-08T15:55:24;2.90;99.90
18805;DHT22;9530;48.930;9.526;2023-02-08T15:57:57;2.80;99.90
18805;DHT22;9530;48.930;9.526;2023-02-08T16:00:28;2.70;99.90
18805;DHT22;9530;48.930;9.526;2023-02-08T16:02:58;2.60;99.90
18805;DHT22;9530;48.930;9.526;2023-02-08T16:05:28;2.50;99.90
18805;DHT22;9530;48.930;9.526;2023-02-08T16:07:56;2.40;99.90
18805;DHT22;9530;48.930;9.526;2023-02-08T16:10:28;2.30;99.90
18805;DHT22;9530;48.930;9.526;2023-02-08T16:12:59;2.30;99.90
18805;DHT22;9530;48.930;9.526;2023-02-08T16:15:47;2.10;99.90
18805;DHT22;9530;48.930;9.526;2023-02-08T16:18:38;2.00;99.90
18805;DHT22;9530;48.930;9.526;2023-02-08T16:21:21;1.90;99.90
18805;DHT22;9530;48.930;9.526;2023-02-08T16:23:53;1.80;99.90
18805;DHT22;9530;48.930;9.526;2023-02-08T16:26:23;1.70;99.90
18805;DHT22;9530;48.930;9.526;2023-02-08T16:28:53;1.60;99.90